createdAt,value
2016-10-08T00:01:25.859Z,8
2016-10-08T00:02:07.555Z,7.9
2016-10-08T00:02:49.203Z,7.89
2016-10-08T00:03:31.065Z,7.85
2016-10-08T00:05:46.120Z,7.86
2016-10-08T00:06:27.932Z,7.8
2016-10-08T00:08:28.203Z,7.86
2016-10-08T00:09:09.746Z,7.89
2016-10-08T00:09:51.462Z,7.82
2016-10-08T00:10:33.137Z,7.74
2016-10-08T00:11:14.871Z,7.87
2016-10-08T00:11:56.585Z,7.83
2016-10-08T00:12:38.490Z,7.82
2016-10-08T00:13:20.203Z,7.86
2016-10-08T00:14:01.954Z,7.86
2016-10-08T00:14:43.717Z,7.89
2016-10-08T00:15:25.527Z,7.86
2016-10-08T00:17:14.871Z,7.83
2016-10-08T00:17:56.653Z,7.82
2016-10-08T00:18:38.423Z,7.89
2016-10-08T00:19:20.205Z,7.82
2016-10-08T00:21:20.332Z,7.83
2016-10-08T00:22:02.061Z,7.86
2016-10-08T00:24:02.113Z,7.83
2016-10-08T00:24:43.839Z,7.83
2016-10-08T00:25:25.541Z,7.8
2016-10-08T00:26:07.191Z,7.75
2016-10-08T00:26:48.929Z,7.83
2016-10-08T00:27:30.659Z,7.75
2016-10-08T00:28:12.432Z,7.8
2016-10-08T00:28:54.126Z,7.8
2016-10-08T00:29:35.747Z,7.77
2016-10-08T00:30:17.437Z,7.8
2016-10-08T00:30:59.093Z,7.74
2016-10-08T00:31:40.785Z,7.69
2016-10-08T00:32:22.458Z,7.75
2016-10-08T00:33:04.012Z,7.77
2016-10-08T00:33:45.679Z,7.67
2016-10-08T00:34:27.379Z,7.69
2016-10-08T00:35:09.149Z,7.71
2016-10-08T00:35:50.939Z,7.67
2016-10-08T00:36:32.628Z,7.72
2016-10-08T00:37:14.404Z,7.67
2016-10-08T00:37:56.069Z,7.72
2016-10-08T00:38:37.718Z,7.69
2016-10-08T00:39:19.411Z,7.63
2016-10-08T00:41:14.213Z,7.61
2016-10-08T00:41:55.919Z,7.69
2016-10-08T00:42:37.683Z,7.74
2016-10-08T00:43:19.535Z,7.67
2016-10-08T00:45:19.472Z,7.6
2016-10-08T00:46:01.035Z,7.6
2016-10-08T00:46:42.784Z,7.64
2016-10-08T00:47:24.449Z,7.69
2016-10-08T00:48:06.262Z,7.64
2016-10-08T00:48:47.921Z,7.61
2016-10-08T00:49:29.587Z,7.6
2016-10-08T00:50:11.254Z,7.61
2016-10-08T00:50:52.926Z,7.67
2016-10-08T00:51:34.584Z,7.6
2016-10-08T00:52:16.283Z,7.6
2016-10-08T00:52:58.115Z,7.58
2016-10-08T00:54:47.444Z,7.61
2016-10-08T00:55:29.124Z,7.57
2016-10-08T00:56:10.590Z,7.58
2016-10-08T00:56:51.368Z,7.6
2016-10-08T00:57:31.890Z,7.6
2016-10-08T00:58:12.424Z,7.57
2016-10-08T00:58:52.936Z,7.58
2016-10-08T00:59:33.439Z,7.5
2016-10-08T01:00:13.949Z,7.57
2016-10-08T01:00:54.466Z,7.53
2016-10-08T01:01:35.005Z,7.6
2016-10-08T01:02:15.532Z,7.58
2016-10-08T01:02:56.027Z,7.61
2016-10-08T01:03:36.527Z,7.58
2016-10-08T01:04:17.047Z,7.63
2016-10-08T01:04:57.537Z,7.67
2016-10-08T01:05:38.038Z,7.63
2016-10-08T01:06:18.532Z,7.67
2016-10-08T01:06:59.047Z,7.69
2016-10-08T01:07:39.572Z,7.71
2016-10-08T01:08:20.123Z,7.68
2016-10-08T01:09:00.654Z,7.64
2016-10-08T01:09:41.149Z,7.77
2016-10-08T01:10:21.729Z,7.77
2016-10-08T01:11:02.249Z,7.71
2016-10-08T01:11:42.760Z,7.74
2016-10-08T01:12:23.286Z,7.8
2016-10-08T01:13:03.802Z,7.77
2016-10-08T01:13:44.351Z,7.82
2016-10-08T01:14:24.942Z,7.86
2016-10-08T01:15:05.451Z,7.83
2016-10-08T01:15:45.952Z,7.85
2016-10-08T01:16:26.455Z,7.87
2016-10-08T01:17:06.990Z,7.89
2016-10-08T01:17:47.481Z,7.87
2016-10-08T01:18:27.991Z,7.9
2016-10-08T01:19:08.501Z,7.93
2016-10-08T01:19:49.027Z,7.98
2016-10-08T01:20:29.587Z,7.95
2016-10-08T01:21:10.139Z,7.97
2016-10-08T01:21:50.656Z,7.92
2016-10-08T01:22:31.200Z,7.89
2016-10-08T01:23:11.730Z,7.89
2016-10-08T01:23:52.268Z,7.87
2016-10-08T01:24:32.810Z,8.01
2016-10-08T01:25:13.344Z,7.93
2016-10-08T01:25:53.878Z,7.93
2016-10-08T01:26:34.400Z,8
2016-10-08T01:27:14.947Z,8.01
2016-10-08T01:27:55.457Z,8.01
2016-10-08T01:28:35.987Z,7.98
2016-10-08T01:29:16.478Z,7.95
2016-10-08T01:29:57.002Z,8
2016-10-08T01:30:37.542Z,8.02
2016-10-08T01:31:18.091Z,8.07
2016-10-08T01:31:58.615Z,8.01
2016-10-08T01:32:39.133Z,8.01
2016-10-08T01:33:19.643Z,8.12
2016-10-08T01:34:00.180Z,8.12
2016-10-08T01:34:40.700Z,8.12
2016-10-08T01:35:21.263Z,8.02
2016-10-08T06:14:52.735Z,9.54
2016-10-08T06:15:34.841Z,9.51
2016-10-08T06:16:15.377Z,9.66
2016-10-08T06:16:55.955Z,9.66
2016-10-08T06:17:36.436Z,9.57
2016-10-08T06:18:16.917Z,9.57
2016-10-08T06:18:57.512Z,9.65
2016-10-08T06:19:38.000Z,9.65
2016-10-08T06:20:18.495Z,9.66
2016-10-08T06:20:58.988Z,9.57
2016-10-08T06:21:39.501Z,9.65
2016-10-08T06:22:20.002Z,9.6
2016-10-08T06:23:00.633Z,9.71
2016-10-08T06:23:41.144Z,9.64
2016-10-08T06:24:21.645Z,9.69
2016-10-08T06:25:02.122Z,9.69
2016-10-08T06:25:42.623Z,9.65
2016-10-08T06:26:23.137Z,9.69
2016-10-08T06:27:03.622Z,9.65
2016-10-08T06:27:44.149Z,9.69
2016-10-08T06:28:24.690Z,9.72
2016-10-08T06:29:05.240Z,9.66
2016-10-08T06:29:45.793Z,9.71
2016-10-08T06:30:26.509Z,9.69
2016-10-08T06:31:07.042Z,9.65
2016-10-08T06:31:47.598Z,9.72
2016-10-08T06:32:28.143Z,9.74
2016-10-08T06:33:08.701Z,9.76
2016-10-08T06:33:49.185Z,9.72
2016-10-08T06:34:29.669Z,9.74
2016-10-08T06:35:10.151Z,9.78
2016-10-08T06:35:50.642Z,9.79
2016-10-08T06:36:31.111Z,9.78
2016-10-08T06:37:11.605Z,9.76
2016-10-08T06:37:52.095Z,9.72
2016-10-08T06:38:32.707Z,9.76
2016-10-08T06:39:13.149Z,9.86
2016-10-08T06:39:53.686Z,9.76
2016-10-08T06:40:34.193Z,9.76
2016-10-08T06:41:14.762Z,9.79
2016-10-08T06:41:55.255Z,9.75
2016-10-08T06:42:35.711Z,9.81
2016-10-08T06:43:16.202Z,9.72
2016-10-08T06:43:56.728Z,9.76
2016-10-08T06:44:37.277Z,9.83
2016-10-08T06:45:17.798Z,9.79
2016-10-08T06:45:58.353Z,9.81
2016-10-08T06:46:38.895Z,9.81
2016-10-08T06:47:19.420Z,9.75
2016-10-08T06:47:59.914Z,9.76
2016-10-08T06:48:40.392Z,9.86
2016-10-08T06:49:20.880Z,9.83
2016-10-08T06:50:01.363Z,9.74
2016-10-08T06:50:41.867Z,9.81
2016-10-08T06:51:22.351Z,9.89
2016-10-08T06:52:02.856Z,9.91
2016-10-08T06:52:43.400Z,9.9
2016-10-08T06:53:23.867Z,9.91
2016-10-08T06:54:04.365Z,9.89
2016-10-08T06:54:44.840Z,9.94
2016-10-08T06:55:25.349Z,9.94
2016-10-08T06:56:05.840Z,9.9
2016-10-08T06:56:46.387Z,9.94
2016-10-08T06:57:26.890Z,9.97
2016-10-08T06:58:07.406Z,9.89
2016-10-08T06:58:47.883Z,9.97
2016-10-08T06:59:28.364Z,10.01
2016-10-08T07:00:08.850Z,10.01
2016-10-08T07:00:49.374Z,9.94
2016-10-08T07:01:29.848Z,9.93
2016-10-08T07:02:10.339Z,9.86
2016-10-08T07:02:50.826Z,9.89
2016-10-08T07:03:31.344Z,9.89
2016-10-08T07:04:11.879Z,9.89
2016-10-08T07:04:52.440Z,9.91
2016-10-08T07:05:32.927Z,9.86
2016-10-08T07:06:13.491Z,9.87
2016-10-08T07:06:53.971Z,9.89
2016-10-08T07:07:34.486Z,9.9
2016-10-08T07:08:15.001Z,9.93
2016-10-08T07:08:55.496Z,9.89
2016-10-08T07:09:36.039Z,9.9
2016-10-08T07:10:16.572Z,9.91
2016-10-08T07:10:57.162Z,9.87
2016-10-08T07:11:37.714Z,9.89
2016-10-08T07:12:18.267Z,9.89
2016-10-08T07:12:58.806Z,9.93
2016-10-08T07:13:39.325Z,9.94
2016-10-08T07:14:19.804Z,9.94
2016-10-08T07:15:00.320Z,9.94
2016-10-08T07:15:40.852Z,9.9
2016-10-08T07:16:21.382Z,9.97
2016-10-08T07:17:01.891Z,9.9
2016-10-08T07:17:42.416Z,9.89
2016-10-08T07:18:22.894Z,10.01
2016-10-08T07:19:03.421Z,9.96
2016-10-08T07:19:45.786Z,10.01
2016-10-08T07:20:26.390Z,9.93
2016-10-08T07:21:06.897Z,9.87
2016-10-08T07:21:47.393Z,9.99
2016-10-08T07:22:27.927Z,9.9
2016-10-08T07:23:08.456Z,9.91
2016-10-08T07:23:48.934Z,10.05
2016-10-08T07:24:29.453Z,9.97
2016-10-08T07:25:09.962Z,10.05
2016-10-08T07:25:50.509Z,10.04
2016-10-08T07:26:31.045Z,10.04
2016-10-08T07:27:11.575Z,10.01
2016-10-08T07:27:52.101Z,10.02
2016-10-08T07:28:32.640Z,10.07
2016-10-08T07:29:13.195Z,9.97
2016-10-08T07:29:53.743Z,10.12
2016-10-08T07:30:34.251Z,10.12
2016-10-08T07:31:14.767Z,10.12
2016-10-08T07:31:55.269Z,10.11
2016-10-08T07:32:35.823Z,10.12
2016-10-08T07:33:16.365Z,10.17
2016-10-08T07:33:56.903Z,10.17
2016-10-08T07:34:37.445Z,10.22
2016-10-08T07:35:17.978Z,10.27
2016-10-08T07:35:58.505Z,10.26
2016-10-08T07:36:39.037Z,10.34
2016-10-08T07:37:19.582Z,10.3
2016-10-08T07:38:00.120Z,10.4
2016-10-08T07:38:40.656Z,10.38
2016-10-08T07:39:21.172Z,10.4
2016-10-08T07:40:01.705Z,10.42
2016-10-08T07:40:42.248Z,10.45
2016-10-08T07:41:22.804Z,10.44
2016-10-08T07:42:03.340Z,10.44
2016-10-08T07:42:43.891Z,10.56
2016-10-08T07:43:24.412Z,10.48
2016-10-08T07:44:04.961Z,10.48
2016-10-08T07:44:45.501Z,10.55
2016-10-08T07:45:26.055Z,10.53
2016-10-08T07:46:06.580Z,10.51
2016-10-08T07:46:48.625Z,10.47
2016-10-08T07:47:29.158Z,10.47
2016-10-08T07:48:09.708Z,10.53
2016-10-08T07:48:50.234Z,10.55
2016-10-08T07:49:30.749Z,10.56
2016-10-08T07:50:11.288Z,10.44
2016-10-08T07:50:51.827Z,10.55
2016-10-08T07:51:32.363Z,10.55
2016-10-08T07:52:12.907Z,10.48
2016-10-08T07:52:53.436Z,10.55
2016-10-08T07:53:33.932Z,10.55
2016-10-08T07:54:14.446Z,10.53
2016-10-08T07:54:54.985Z,10.52
2016-10-08T07:55:35.501Z,10.41
2016-10-08T07:56:16.014Z,10.44
2016-10-08T07:56:56.543Z,10.45
2016-10-08T07:57:37.058Z,10.42
2016-10-08T07:58:17.546Z,10.4
2016-10-08T07:58:58.070Z,10.42
2016-10-08T07:59:38.576Z,10.42
2016-10-08T08:00:19.112Z,10.44
2016-10-08T08:00:59.625Z,10.51
2016-10-08T08:01:40.111Z,10.55
2016-10-08T08:02:20.590Z,10.47
2016-10-08T08:03:01.143Z,10.42
2016-10-08T08:03:41.608Z,10.55
2016-10-08T08:04:22.147Z,10.44
2016-10-08T08:05:02.690Z,10.55
2016-10-08T08:05:43.228Z,10.51
2016-10-08T08:06:23.770Z,10.55
2016-10-08T08:07:04.335Z,10.47
2016-10-08T08:07:44.871Z,10.51
2016-10-08T08:08:25.410Z,10.47
2016-10-08T08:09:05.953Z,10.51
2016-10-08T08:09:46.463Z,10.51
2016-10-08T08:10:27.016Z,10.48
2016-10-08T08:11:07.549Z,10.44
2016-10-08T08:11:48.083Z,10.53
2016-10-08T08:12:28.617Z,10.59
2016-10-08T08:13:09.153Z,10.52
2016-10-08T08:13:49.655Z,10.48
2016-10-08T08:14:30.195Z,10.59
2016-10-08T08:15:10.701Z,10.67
2016-10-08T08:15:51.238Z,10.64
2016-10-08T08:16:31.793Z,10.7
2016-10-08T08:17:12.340Z,10.81
2016-10-08T08:17:52.850Z,10.79
2016-10-08T08:18:33.358Z,10.84
2016-10-08T08:19:13.872Z,10.79
2016-10-08T08:19:54.388Z,10.91
2016-10-08T08:20:34.905Z,10.86
2016-10-08T08:21:15.432Z,10.85
2016-10-08T08:21:55.951Z,10.85
2016-10-08T08:22:36.456Z,10.91
2016-10-08T08:23:16.996Z,10.88
2016-10-08T08:23:57.541Z,10.99
2016-10-08T08:24:38.076Z,11.02
2016-10-08T08:25:18.642Z,11.03
2016-10-08T08:25:59.163Z,11.04
2016-10-08T08:26:39.697Z,11.04
2016-10-08T08:27:20.204Z,11.18
2016-10-08T08:28:00.745Z,11.18
2016-10-08T08:28:41.305Z,11.19
2016-10-08T08:29:21.850Z,11.21
2016-10-08T08:30:02.399Z,11.21
2016-10-08T08:30:42.970Z,11.33
2016-10-08T08:31:23.522Z,11.35
2016-10-08T08:32:04.072Z,11.42
2016-10-08T08:32:44.623Z,11.4
2016-10-08T08:33:25.165Z,11.42
2016-10-08T08:34:05.708Z,11.43
2016-10-08T08:34:46.255Z,11.39
2016-10-08T08:35:26.801Z,11.39
2016-10-08T08:36:07.339Z,11.43
2016-10-08T08:36:47.870Z,11.43
2016-10-08T08:37:28.408Z,11.43
2016-10-08T08:38:08.956Z,11.37
2016-10-08T08:38:49.479Z,11.39
2016-10-08T08:39:30.014Z,11.42
2016-10-08T08:40:10.555Z,11.35
2016-10-08T08:40:51.105Z,11.36
2016-10-08T08:41:31.625Z,11.43
2016-10-08T08:42:12.179Z,11.39
2016-10-08T08:42:52.728Z,11.42
2016-10-08T08:43:33.254Z,11.33
2016-10-08T08:44:13.775Z,11.37
2016-10-08T08:44:54.302Z,11.36
2016-10-08T08:45:34.865Z,11.42
2016-10-08T08:46:15.395Z,11.54
2016-10-08T08:46:55.922Z,11.73
2016-10-08T08:47:36.457Z,11.78
2016-10-08T08:48:17.014Z,12.05
2016-10-08T08:48:57.550Z,12.14
2016-10-08T08:49:38.074Z,12.32
2016-10-08T08:50:18.618Z,12.6
2016-10-08T08:50:59.167Z,12.85
2016-10-08T08:51:39.700Z,13.08
2016-10-08T08:52:20.292Z,13.25
2016-10-08T08:53:00.841Z,13.57
2016-10-08T08:53:41.391Z,13.89
2016-10-08T08:54:21.941Z,14.09
2016-10-08T08:55:02.476Z,14.2
2016-10-08T08:55:43.066Z,14.24
2016-10-08T08:56:23.618Z,14.33
2016-10-08T08:57:04.163Z,14.46
2016-10-08T08:57:44.712Z,14.6
2016-10-08T08:58:25.261Z,14.91
2016-10-08T08:59:05.791Z,14.92
2016-10-08T08:59:46.295Z,15.09
2016-10-08T09:00:26.837Z,15.1
2016-10-08T09:01:07.391Z,15.27
2016-10-08T09:01:47.938Z,15.46
2016-10-08T09:02:28.447Z,15.62
2016-10-08T09:03:08.963Z,15.71
2016-10-08T09:03:49.473Z,15.76
2016-10-08T09:04:30.039Z,15.87
2016-10-08T09:05:10.545Z,16.01
2016-10-08T09:05:51.071Z,16.09
2016-10-08T09:06:31.608Z,16.25
2016-10-08T09:07:12.141Z,16.39
2016-10-08T09:07:52.685Z,16.46
2016-10-08T09:08:33.248Z,16.57
2016-10-08T09:09:13.798Z,16.67
2016-10-08T09:09:54.290Z,16.86
2016-10-08T09:10:34.836Z,16.85
2016-10-08T09:11:15.376Z,16.98
2016-10-08T09:11:55.898Z,17.04
2016-10-08T09:12:36.443Z,17.18
2016-10-08T09:13:16.977Z,17.26
2016-10-08T09:13:57.513Z,17.3
2016-10-08T09:14:38.061Z,17.36
2016-10-08T09:15:18.613Z,17.46
2016-10-08T09:15:59.176Z,17.55
2016-10-08T09:16:39.722Z,17.74
2016-10-08T09:17:20.274Z,17.77
2016-10-08T09:18:00.827Z,17.93
2016-10-08T09:18:41.389Z,17.97
2016-10-08T09:19:21.929Z,18.11
2016-10-08T09:20:02.502Z,18.21
2016-10-08T09:20:43.043Z,18.41
2016-10-08T09:21:23.570Z,18.57
2016-10-08T09:22:04.087Z,18.75
2016-10-08T09:22:44.606Z,18.76
2016-10-08T09:23:25.134Z,18.8
2016-10-08T09:24:05.701Z,18.8
2016-10-08T09:24:46.247Z,18.98
2016-10-08T09:25:26.783Z,19.06
2016-10-08T09:26:07.337Z,19.14
2016-10-08T09:26:47.885Z,19.28
2016-10-08T09:27:28.431Z,19.58
2016-10-08T09:28:09.012Z,19.71
2016-10-08T09:28:49.548Z,19.83
2016-10-08T09:29:30.083Z,19.96
2016-10-08T09:30:10.639Z,20.1
2016-10-08T09:30:51.204Z,19.99
2016-10-08T09:31:31.756Z,19.76
2016-10-08T09:32:12.298Z,19.56
2016-10-08T09:32:52.853Z,19.28
2016-10-08T09:33:33.408Z,18.95
2016-10-08T09:34:13.951Z,18.55
2016-10-08T09:34:54.497Z,18.35
2016-10-08T09:35:35.052Z,18.14
2016-10-08T09:36:15.601Z,18.12
2016-10-08T09:36:56.154Z,18.15
2016-10-08T09:37:36.700Z,18.17
2016-10-08T09:38:17.283Z,18.29
2016-10-08T09:38:57.828Z,18.29
2016-10-08T09:39:38.378Z,18.29
2016-10-08T09:40:18.931Z,18.05
2016-10-08T09:40:59.480Z,17.92
2016-10-08T09:41:40.031Z,17.71
2016-10-08T09:42:20.557Z,17.7
2016-10-08T09:43:01.079Z,17.7
2016-10-08T09:43:41.629Z,17.59
2016-10-08T09:44:22.415Z,17.55
2016-10-08T09:45:02.984Z,17.4
2016-10-08T09:45:43.486Z,17.22
2016-10-08T09:46:24.006Z,17.21
2016-10-08T09:47:04.577Z,16.93
2016-10-08T09:47:45.130Z,16.93
2016-10-08T09:48:25.669Z,16.86
2016-10-08T09:49:06.209Z,16.98
2016-10-08T09:49:46.766Z,17.18
2016-10-08T09:50:27.354Z,17.46
2016-10-08T09:51:07.905Z,17.59
2016-10-08T09:51:48.456Z,17.59
2016-10-08T09:52:28.998Z,17.63
2016-10-08T09:53:09.541Z,17.56
2016-10-08T09:53:50.083Z,17.82
2016-10-08T09:54:30.624Z,17.82
2016-10-08T09:55:11.173Z,17.81
2016-10-08T09:55:51.731Z,17.64
2016-10-08T09:56:32.277Z,17.51
2016-10-08T09:57:12.821Z,17.41
2016-10-08T09:57:53.385Z,17.3
2016-10-08T09:58:33.930Z,17.3
2016-10-08T09:59:14.482Z,17.15
2016-10-08T09:59:55.109Z,17.06
2016-10-08T10:00:35.641Z,16.93
2016-10-08T10:01:16.189Z,16.81
2016-10-08T10:01:56.732Z,16.64
2016-10-08T10:02:37.266Z,16.66
2016-10-08T10:03:17.805Z,16.48
2016-10-08T10:03:58.327Z,16.38
2016-10-08T10:04:38.872Z,16.25
2016-10-08T10:05:19.416Z,16.3
2016-10-08T10:05:59.949Z,16.3
2016-10-08T10:06:40.481Z,16.24
2016-10-08T10:07:21.009Z,16.38
2016-10-08T10:08:01.558Z,16.41
2016-10-08T10:08:42.105Z,16.49
2016-10-08T10:09:22.615Z,16.41
2016-10-08T10:10:03.154Z,16.46
2016-10-08T10:10:43.687Z,16.45
2016-10-08T10:11:24.218Z,16.28
2016-10-08T10:12:04.746Z,16.25
2016-10-08T10:12:45.270Z,16.15
2016-10-08T10:13:25.818Z,16.07
2016-10-08T10:14:06.360Z,16.02
2016-10-08T10:14:46.889Z,15.89
2016-10-08T10:15:27.442Z,15.84
2016-10-08T10:16:07.984Z,15.86
2016-10-08T10:16:48.527Z,15.84
2016-10-08T10:17:29.065Z,15.67
2016-10-08T10:18:09.609Z,15.57
2016-10-08T10:18:50.130Z,15.59
2016-10-08T10:19:30.659Z,15.47
2016-10-08T10:20:11.227Z,15.49
2016-10-08T10:20:51.761Z,15.67
2016-10-08T10:21:32.285Z,15.67
2016-10-08T10:22:12.810Z,15.84
2016-10-08T10:22:53.357Z,16.01
2016-10-08T10:23:33.885Z,16.24
2016-10-08T10:24:14.424Z,16.43
2016-10-08T10:24:54.950Z,16.68
2016-10-08T10:25:35.500Z,16.89
2016-10-08T10:26:16.047Z,16.88
2016-10-08T10:26:56.599Z,16.97
2016-10-08T10:27:37.139Z,16.98
2016-10-08T10:28:17.686Z,16.97
2016-10-08T10:28:58.248Z,17.01
2016-10-08T10:29:38.805Z,16.91
2016-10-08T10:30:19.356Z,17.06
2016-10-08T10:30:59.899Z,17.22
2016-10-08T10:31:40.454Z,17.51
2016-10-08T10:32:20.995Z,17.7
2016-10-08T10:33:01.532Z,17.97
2016-10-08T10:33:42.078Z,18.08
2016-10-08T10:34:22.599Z,18.25
2016-10-08T10:35:03.155Z,18.32
2016-10-08T10:35:43.686Z,18.51
2016-10-08T10:36:24.231Z,18.52
2016-10-08T10:37:04.792Z,18.52
2016-10-08T10:37:45.339Z,18.52
2016-10-08T10:38:25.880Z,18.63
2016-10-08T10:39:06.412Z,18.7
2016-10-08T10:39:46.942Z,18.82
2016-10-08T10:40:27.488Z,18.76
2016-10-08T10:41:08.036Z,18.7
2016-10-08T10:41:48.594Z,18.63
2016-10-08T10:42:29.123Z,18.69
2016-10-08T10:43:09.656Z,18.76
2016-10-08T10:43:50.210Z,19.1
2016-10-08T10:44:30.753Z,19.33
2016-10-08T10:45:11.317Z,19.55
2016-10-08T10:45:51.863Z,19.83
2016-10-08T10:46:32.409Z,20.21
2016-10-08T10:47:12.963Z,20.48
2016-10-08T10:47:53.484Z,20.73
2016-10-08T10:48:34.042Z,21.03
2016-10-08T10:49:14.586Z,21.03
2016-10-08T10:49:55.145Z,21.37
2016-10-08T10:50:35.694Z,21.58
2016-10-08T10:51:16.244Z,21.83
2016-10-08T10:51:56.809Z,22.03
2016-10-08T10:52:37.347Z,22.14
2016-10-08T10:53:17.904Z,22.39
2016-10-08T10:53:58.539Z,22.52
2016-10-08T10:54:39.125Z,22.61
2016-10-08T10:55:19.672Z,22.7
2016-10-08T10:56:00.238Z,22.67
2016-10-08T10:56:40.742Z,22.83
2016-10-08T10:57:21.342Z,23
2016-10-08T10:58:01.856Z,23.1
2016-10-08T10:58:42.399Z,23.2
2016-10-08T10:59:22.937Z,23.28
2016-10-08T11:00:03.454Z,23.47
2016-10-08T11:00:43.977Z,23.66
2016-10-08T11:01:24.502Z,23.84
2016-10-08T11:02:05.061Z,23.95
2016-10-08T11:02:45.619Z,24.15
2016-10-08T11:03:26.133Z,24.15
2016-10-08T11:04:06.662Z,24.18
2016-10-08T11:04:47.194Z,24.32
2016-10-08T11:05:27.737Z,24.24
2016-10-08T11:06:08.285Z,24.2
2016-10-08T11:06:48.840Z,23.94
2016-10-08T11:07:29.392Z,23.85
2016-10-08T11:08:09.999Z,23.73
2016-10-08T11:08:50.616Z,23.75
2016-10-08T11:09:31.147Z,23.7
2016-10-08T11:10:11.683Z,23.8
2016-10-08T11:10:52.236Z,23.61
2016-10-08T11:11:32.775Z,23.31
2016-10-08T11:12:13.311Z,23.13
2016-10-08T11:12:53.900Z,22.76
2016-10-08T11:13:34.382Z,22.25
2016-10-08T11:14:14.937Z,21.99
2016-10-08T11:14:55.484Z,21.64
2016-10-08T11:15:36.037Z,21.59
2016-10-08T11:16:16.592Z,21.19
2016-10-08T11:16:57.142Z,21.07
2016-10-08T11:17:37.698Z,20.89
2016-10-08T11:18:18.223Z,20.52
2016-10-08T11:18:58.735Z,20.32
2016-10-08T11:19:39.262Z,20.13
2016-10-08T11:20:19.860Z,19.87
2016-10-08T11:21:00.414Z,19.74
2016-10-08T11:21:40.938Z,19.58
2016-10-08T11:22:21.468Z,19.39
2016-10-08T11:23:02.041Z,19.23
2016-10-08T11:23:42.699Z,19.02
2016-10-08T11:24:23.210Z,18.81
2016-10-08T11:25:03.738Z,18.7
2016-10-08T11:25:44.266Z,18.51
2016-10-08T11:26:24.817Z,18.37
2016-10-08T11:27:05.366Z,18.25
2016-10-08T11:27:45.919Z,18.02
2016-10-08T11:28:26.446Z,17.96
2016-10-08T11:29:06.957Z,17.77
2016-10-08T11:29:47.475Z,17.56
2016-10-08T11:30:28.020Z,17.41
2016-10-08T11:31:08.578Z,17.22
2016-10-08T11:31:49.118Z,17.07
2016-10-08T11:32:29.664Z,17.01
2016-10-08T11:33:10.216Z,16.86
2016-10-08T11:33:50.761Z,16.86
2016-10-08T11:34:31.308Z,16.66
2016-10-08T11:35:11.861Z,16.53
2016-10-08T11:35:52.424Z,16.49
2016-10-08T11:36:32.935Z,16.33
2016-10-08T11:37:13.474Z,16.23
2016-10-08T11:37:54.027Z,16.02
2016-10-08T11:38:34.556Z,16.05
2016-10-08T11:39:15.070Z,16.01
2016-10-08T11:39:55.626Z,15.92
2016-10-08T11:40:36.124Z,15.93
2016-10-08T11:41:16.655Z,15.65
2016-10-08T11:41:57.181Z,15.72
2016-10-08T11:42:37.687Z,15.62
2016-10-08T11:43:18.220Z,15.6
2016-10-08T11:43:58.730Z,15.54
2016-10-08T11:44:39.259Z,15.5
2016-10-08T11:45:19.812Z,15.39
2016-10-08T11:46:00.380Z,15.39
2016-10-08T11:46:40.901Z,15.41
2016-10-08T11:47:21.432Z,15.31
2016-10-08T11:48:01.972Z,15.34
2016-10-08T11:48:42.497Z,15.31
2016-10-08T11:49:23.034Z,15.32
2016-10-08T11:50:03.567Z,15.38
2016-10-08T11:50:44.124Z,15.36
2016-10-08T11:51:24.681Z,15.29
2016-10-08T11:52:05.211Z,15.31
2016-10-08T11:52:45.762Z,15.31
2016-10-08T11:53:26.288Z,15.27
2016-10-08T11:54:06.801Z,15.32
2016-10-08T11:54:47.330Z,15.19
2016-10-08T11:55:27.858Z,15.23
2016-10-08T11:56:08.398Z,15.2
2016-10-08T11:56:48.949Z,15.16
2016-10-08T11:57:29.491Z,15.19
2016-10-08T11:58:10.034Z,15.29
2016-10-08T11:58:50.548Z,15.27
2016-10-08T11:59:31.074Z,15.31
2016-10-08T12:00:11.582Z,15.39
2016-10-08T12:00:52.111Z,15.39
2016-10-08T12:01:32.637Z,15.32
2016-10-08T12:02:13.130Z,15.44
2016-10-08T12:02:53.684Z,15.43
2016-10-08T12:03:34.231Z,15.34
2016-10-08T12:04:14.786Z,15.44
2016-10-08T12:04:55.342Z,15.39
2016-10-08T12:05:35.879Z,15.32
2016-10-08T12:06:16.419Z,15.43
2016-10-08T12:06:56.941Z,15.43
2016-10-08T12:07:37.481Z,15.44
2016-10-08T12:08:18.030Z,15.39
2016-10-08T12:08:58.578Z,15.32
2016-10-08T12:09:39.125Z,15.38
2016-10-08T12:10:19.674Z,15.38
2016-10-08T12:11:00.246Z,15.31
2016-10-08T12:11:40.746Z,15.36
2016-10-08T12:12:21.279Z,15.28
2016-10-08T12:13:01.817Z,15.36
2016-10-08T12:13:42.345Z,15.2
2016-10-08T12:14:22.893Z,15.21
2016-10-08T12:15:03.431Z,15.17
2016-10-08T12:15:43.999Z,15.16
2016-10-08T12:16:24.529Z,15.07
2016-10-08T12:17:05.066Z,15.01
2016-10-08T12:17:45.603Z,15.03
2016-10-08T12:18:26.137Z,15.02
2016-10-08T12:19:06.703Z,14.98
2016-10-08T12:19:47.238Z,14.96
2016-10-08T12:20:27.769Z,14.81
2016-10-08T12:21:08.310Z,14.84
2016-10-08T12:21:48.850Z,14.72
2016-10-08T12:22:29.365Z,14.75
2016-10-08T12:23:09.891Z,14.7
2016-10-08T12:23:50.411Z,14.75
2016-10-08T12:24:30.939Z,14.72
2016-10-08T12:25:11.488Z,14.6
2016-10-08T12:25:52.030Z,14.64
2016-10-08T12:26:32.572Z,14.65
2016-10-08T12:27:13.124Z,14.62
2016-10-08T12:27:53.675Z,14.61
2016-10-08T12:28:34.230Z,14.65
2016-10-08T12:29:14.804Z,14.65
2016-10-08T12:29:55.366Z,14.65
2016-10-08T12:30:35.904Z,14.77
2016-10-08T12:31:16.445Z,14.68
2016-10-08T12:31:56.986Z,14.73
2016-10-08T12:32:37.534Z,14.69
2016-10-08T12:33:18.073Z,14.72
2016-10-08T12:33:58.638Z,14.8
2016-10-08T12:34:39.166Z,14.83
2016-10-08T12:35:19.710Z,14.75
2016-10-08T12:36:00.249Z,14.75
2016-10-08T12:36:40.818Z,14.91
2016-10-08T12:37:21.359Z,14.88
2016-10-08T12:38:01.896Z,14.92
2016-10-08T12:38:42.428Z,14.98
2016-10-08T12:39:22.972Z,14.94
2016-10-08T12:40:03.526Z,15.03
2016-10-08T12:40:44.053Z,15.06
2016-10-08T12:41:24.615Z,15.17
2016-10-08T12:42:05.126Z,15.06
2016-10-08T12:42:45.652Z,15.07
2016-10-08T12:43:26.181Z,15.06
2016-10-08T12:44:06.703Z,15.06
2016-10-08T12:44:47.248Z,15.14
2016-10-08T12:45:27.795Z,15.16
2016-10-08T12:46:08.334Z,15.13
2016-10-08T12:46:48.878Z,15.1
2016-10-08T12:47:29.424Z,15.16
2016-10-08T12:48:09.942Z,15.11
2016-10-08T12:48:50.466Z,15.21
2016-10-08T12:49:30.991Z,15.21
2016-10-08T12:50:11.486Z,15.2
2016-10-08T12:50:51.994Z,15.27
2016-10-08T12:51:32.519Z,15.19
2016-10-08T12:52:13.036Z,15.19
2016-10-08T12:52:53.576Z,15.31
2016-10-08T12:53:34.131Z,15.28
2016-10-08T12:54:14.663Z,15.21
2016-10-08T12:54:55.211Z,15.2
2016-10-08T12:55:35.776Z,15.21
2016-10-08T12:56:16.324Z,15.21
2016-10-08T12:56:56.897Z,15.29
2016-10-08T12:57:37.443Z,15.19
2016-10-08T12:58:17.981Z,15.29
2016-10-08T12:58:58.518Z,15.2
2016-10-08T12:59:39.038Z,15.17
2016-10-08T13:00:19.583Z,15.19
2016-10-08T13:01:00.135Z,15.29
2016-10-08T13:01:40.702Z,15.34
2016-10-08T13:02:21.205Z,15.29
2016-10-08T13:03:01.782Z,15.34
2016-10-08T13:03:42.326Z,15.44
2016-10-08T13:04:22.870Z,15.39
2016-10-08T13:05:03.399Z,15.5
2016-10-08T13:05:43.938Z,15.51
2016-10-08T13:06:24.472Z,15.44
2016-10-08T13:07:05.017Z,15.59
2016-10-08T13:07:45.566Z,15.56
2016-10-08T13:08:26.108Z,15.5
2016-10-08T13:09:06.650Z,15.5
2016-10-08T13:09:47.195Z,15.44
2016-10-08T13:10:27.731Z,15.47
2016-10-08T13:11:08.276Z,15.39
2016-10-08T13:11:48.808Z,15.39
2016-10-08T13:12:29.342Z,15.44
2016-10-08T13:13:09.851Z,15.44
2016-10-08T13:13:50.418Z,15.43
2016-10-08T13:14:30.978Z,15.46
2016-10-08T13:15:11.550Z,15.43
2016-10-08T13:15:52.073Z,15.38
2016-10-08T13:16:32.618Z,15.44
2016-10-08T13:18:46.901Z,15.44
2016-10-08T13:19:27.451Z,15.39
2016-10-08T13:20:07.986Z,15.41
2016-10-08T13:20:48.517Z,15.41
2016-10-08T13:21:29.059Z,15.44
2016-10-08T13:22:09.597Z,15.31
2016-10-08T13:22:50.133Z,15.31
2016-10-08T13:23:30.658Z,15.28
2016-10-08T13:24:11.187Z,15.35
2016-10-08T13:24:51.733Z,15.27
2016-10-08T13:25:32.299Z,15.34
2016-10-08T13:26:12.835Z,15.32
2016-10-08T13:26:53.379Z,15.35
2016-10-08T13:27:33.925Z,15.31
2016-10-08T13:28:14.460Z,15.38
2016-10-08T13:28:54.991Z,15.41
2016-10-08T13:29:35.531Z,15.29
2016-10-08T13:30:16.111Z,15.41
2016-10-08T13:30:56.600Z,15.41
2016-10-08T13:31:37.139Z,15.47
2016-10-08T13:32:17.664Z,15.51
2016-10-08T13:32:58.198Z,15.46
2016-10-08T13:33:38.707Z,15.67
2016-10-08T13:34:19.199Z,15.56
2016-10-08T13:34:59.694Z,15.56
2016-10-08T13:35:40.220Z,15.54
2016-10-08T13:36:20.756Z,15.65
2016-10-08T13:37:01.283Z,15.69
2016-10-08T13:37:41.829Z,15.6
2016-10-08T13:38:22.360Z,15.71
2016-10-08T13:39:02.915Z,15.74
2016-10-08T13:39:43.478Z,15.74
2016-10-08T13:40:24.026Z,15.71
2016-10-08T13:41:04.515Z,15.62
2016-10-08T13:41:45.023Z,15.65